Time;durP1;ratioP1;P1;durP2;ratioP2;P2;SDS_P1;SDS_P2;PMS_P1;PMS_P2;Temp;Humidity;BMP_temperature;BMP_pressure;BME280_temperature;BME280_humidity;BME280_pressure;Samples;Min_cycle;Max_cycle;Signal;HPM_P1;HPM_P2
2021/11/17 02:27:55;;;;;;;;;;;;;;;-6.92;100.00;100507.82;1547020;91;20192;-69
2021/11/17 02:30:34;;;;;;;;;;;;;;;-6.94;100.00;100506.28;1544906;91;20155;-68
2021/11/17 02:33:12;;;;;;;;;;;;;;;-6.92;100.00;100501.30;1547138;91;20634;-69
2021/11/17 02:35:51;;;;;;;;;;;;;;;-6.89;100.00;100502.84;1549580;91;20271;-70
2021/11/17 02:38:30;;;;;;;;;;;;;;;-6.87;100.00;100507.47;1549994;91;21256;-70
2021/11/17 02:41:17;;;;;;;;;;;;;;;-6.85;100.00;100506.06;1566759;90;20545;-69
2021/11/17 02:43:50;;;;;;;;;;;;;;;-6.83;100.00;100497.16;1556002;92;20568;-70
2021/11/17 02:46:29;;;;;;;;;;;;;;;-6.81;100.00;100496.57;1575850;90;20182;-68
2021/11/17 02:49:16;;;;;;;;;;;;;;;-6.78;100.00;100491.10;1574942;91;20509;-69
2021/11/17 02:51:54;;;;;;;;;;;;;;;-6.75;100.00;100490.03;1576133;90;21171;-69
2021/11/17 02:54:32;;;;;;;;;;;;;;;-6.72;100.00;100488.00;1574652;91;20129;-68
2021/11/17 02:57:21;;;;;;;;;;;;;;;-6.73;100.00;100485.53;1575556;91;20219;-68
2021/11/17 03:00:06;;;;;;;;;;;;;;;-6.73;100.00;100479.83;1578718;91;20161;-69
2021/11/17 03:02:56;;;;;;;;;;;;;;;-6.76;100.00;100482.68;1572600;91;20673;-68
2021/11/17 03:05:29;;;;;;;;;;;;;;;-6.80;100.00;100484.34;1576429;91;21141;-69
2021/11/17 03:08:15;;;;;;;;;;;;;;;-6.83;100.00;100484.10;1578401;90;20260;-69
2021/11/17 03:10:53;;;;;;;;;;;;;;;-6.83;100.00;100484.10;1576292;91;20245;-69
2021/11/17 03:13:38;;;;;;;;;;;;;;;-6.85;100.00;100478.17;1578205;91;20185;-68
2021/11/17 03:16:09;;;;;;;;;;;;;;;-6.85;100.00;100483.39;1577986;91;20185;-69
2021/11/17 03:18:58;;;;;;;;;;;;;;;-6.82;100.00;100485.75;1635124;86;21254;-69
2021/11/17 03:21:31;;;;;;;;;;;;;;;-6.81;100.00;100482.66;1658311;86;20091;-69
2021/11/17 03:24:18;;;;;;;;;;;;;;;-6.79;100.00;100482.90;1659045;86;20147;-69
2021/11/17 03:27:16;;;;;;;;;;;;;;;-6.77;100.00;100471.04;1660217;86;20185;-69
2021/11/17 03:30:08;;;;;;;;;;;;;;;-6.78;100.00;100478.05;1659454;86;20150;-69
2021/11/17 03:32:42;;;;;;;;;;;;;;;-6.77;100.00;100477.09;1660585;86;21928;-69
2021/11/17 03:35:21;;;;;;;;;;;;;;;-6.80;100.00;100470.80;1658960;86;20157;-69
2021/11/17 03:38:09;;;;;;;;;;;;;;;-6.83;100.00;100471.53;1655512;86;20130;-70
2021/11/17 03:40:54;;;;;;;;;;;;;;;-6.86;100.00;100469.96;1659699;86;20153;-71
2021/11/17 03:43:35;;;;;;;;;;;;;;;-6.91;100.00;100468.19;1599688;89;20641;-70
2021/11/17 03:46:07;;;;;;;;;;;;;;;-6.95;100.00;100462.86;1598240;89;21204;-69
2021/11/17 03:48:54;;;;;;;;;;;;;;;-7.01;100.00;100461.54;1599264;89;20175;-69
2021/11/17 03:51:53;;;;;;;;;;;;;;;-7.06;100.00;100465.46;1598610;88;20170;-70
2021/11/17 03:54:30;;;;;;;;;;;;;;;-7.07;100.00;100467.73;1601389;88;20684;-68
2021/11/17 03:57:24;;;;;;;;;;;;;;;-7.08;100.00;100468.66;1602792;87;20139;-68
2021/11/17 04:00:14;;;;;;;;;;;;;;;-7.07;100.00;100465.94;1598704;89;21266;-69
2021/11/17 04:02:56;;;;;;;;;;;;;;;-7.08;100.00;100463.44;1598146;89;20155;-69
2021/11/17 04:05:51;;;;;;;;;;;;;;;-7.12;100.00;100459.77;1601133;89;20436;-68
2021/11/17 04:08:30;;;;;;;;;;;;;;;-7.14;100.00;100464.75;1541511;91;20132;-69
2021/11/17 04:11:10;;;;;;;;;;;;;;;-7.12;100.00;100465.47;1539763;92;20168;-68
2021/11/17 04:13:49;;;;;;;;;;;;;;;-7.14;100.00;100460.35;1537788;91;21216;-68
2021/11/17 04:16:31;;;;;;;;;;;;;;;-7.15;100.00;100455.27;1543313;91;20260;-68
2021/11/17 04:19:10;;;;;;;;;;;;;;;-7.18;100.00;100448.52;1545697;91;20535;-68
2021/11/17 04:21:40;;;;;;;;;;;;;;;-7.22;100.00;100453.59;1579033;89;20160;-68
2021/11/17 04:24:26;;;;;;;;;;;;;;;-7.27;100.00;100445.77;1590321;89;20205;-68
2021/11/17 04:27:07;;;;;;;;;;;;;;;-7.31;100.00;100450.86;1591446;89;21831;-68
2021/11/17 04:29:59;;;;;;;;;;;;;;;-7.33;100.00;100449.66;1589017;89;20136;-71
2021/11/17 04:32:32;;;;;;;;;;;;;;;-7.34;100.00;100454.05;1597395;88;20462;-69
2021/11/17 04:35:02;;;;;;;;;;;;;;;-7.34;100.00;100447.53;1593261;90;20152;-69
2021/11/17 04:37:55;;;;;;;;;;;;;;;-7.31;100.00;100448.25;1592189;90;20163;-68
2021/11/17 04:40:28;;;;;;;;;;;;;;;-7.30;100.00;100445.50;1592437;90;21141;-71
2021/11/17 04:43:04;;;;;;;;;;;;;;;-7.29;100.00;100441.97;1612478;86;20137;-69
2021/11/17 04:45:53;;;;;;;;;;;;;;;-7.26;100.00;100435.69;1624861;86;20207;-69
2021/11/17 04:48:36;;;;;;;;;;;;;;;-7.24;100.00;100432.48;1623080;86;20141;-69
2021/11/17 04:51:39;;;;;;;;;;;;;;;-7.23;100.00;100431.05;1619356;86;20522;-69
2021/11/17 04:54:33;;;;;;;;;;;;;;;-7.23;100.00;100426.31;1623312;87;21105;-70
2021/11/17 04:57:13;;;;;;;;;;;;;;;-7.27;100.00;100429.64;1620527;87;20183;-69
2021/11/17 04:59:54;;;;;;;;;;;;;;;-7.25;100.00;100432.11;1621428;86;20199;-69
2021/11/17 05:02:30;;;;;;;;;;;;;;;-7.25;100.00;100423.84;1620634;86;20161;-68
2021/11/17 05:05:03;;;;;;;;;;;;;;;-7.21;100.00;100429.16;1619161;86;20135;-69
2021/11/17 05:07:39;;;;;;;;;;;;;;;-7.15;100.00;100430.00;1621795;86;21143;-68
2021/11/17 05:10:26;;;;;;;;;;;;;;;-7.05;100.00;100438.44;1620653;87;20200;-69
2021/11/17 05:12:57;;;;;;;;;;;;;;;-6.95;100.00;100432.85;1645239;86;20178;-69
2021/11/17 05:15:31;;;;;;;;;;;;;;;-6.85;100.00;100440.31;1658915;86;20133;-69
2021/11/17 05:18:19;;;;;;;;;;;;;;;-6.78;100.00;100437.58;1660582;86;20078;-69
2021/11/17 05:20:58;;;;;;;;;;;;;;;-6.71;100.00;100434.84;1663938;84;21247;-68
2021/11/17 05:23:34;;;;;;;;;;;;;;;-6.61;100.00;100438.02;1662753;85;20082;-68
2021/11/17 05:26:10;;;;;;;;;;;;;;;-6.55;100.00;100434.93;1664739;82;20082;-69
2021/11/17 05:28:57;;;;;;;;;;;;;;;-6.50;100.00;100430.17;1662695;84;20132;-70
2021/11/17 05:31:50;;;;;;;;;;;;;;;-6.43;100.00;100423.50;1660113;86;20106;-69
2021/11/17 05:34:37;;;;;;;;;;;;;;;-6.35;100.00;100421.09;1659248;85;21281;-69
2021/11/17 05:37:14;;;;;;;;;;;;;;;-6.30;100.00;100418.94;1660339;86;20621;-69
2021/11/17 05:40:08;;;;;;;;;;;;;;;-6.26;100.00;100417.75;1659396;86;20185;-69
2021/11/17 05:42:41;;;;;;;;;;;;;;;-6.20;100.00;100422.95;1699418;82;20245;-69
2021/11/17 05:45:12;;;;;;;;;;;;;;;-6.11;100.00;100423.99;1694991;84;20176;-69
2021/11/17 05:47:48;;;;;;;;;;;;;;;-6.06;100.00;100421.34;1697572;84;21176;-69
2021/11/17 05:50:34;;;;;;;;;;;;;;;-5.99;100.00;100416.94;1696157;84;20166;-69
2021/11/17 05:53:07;;;;;;;;;;;;;;;-5.88;100.00;100415.53;1681622;84;20183;-69
2021/11/17 05:55:42;;;;;;;;;;;;;;;-5.76;100.00;100420.23;1650835;85;20242;-70
2021/11/17 05:58:18;;;;;;;;;;;;;;;-5.68;100.00;100419.96;1656468;85;20183;-68
2021/11/17 06:01:05;;;;;;;;;;;;;;;-5.66;100.00;100414.58;1648695;85;21096;-68
2021/11/17 06:03:43;;;;;;;;;;;;;;;-5.58;100.00;100420.48;1683743;84;20472;-68
2021/11/17 06:06:10;;;;;;;;;;;;;;;-5.54;100.00;100421.89;1700991;82;20245;-69
2021/11/17 06:08:36;;;;;;;;;;;;;;;-5.55;100.00;100417.14;1730718;81;20170;-69
2021/11/17 06:11:03;;;;;;;;;;;;;;;-5.56;100.00;100413.33;1676707;84;20252;-70
2021/11/17 06:13:29;;;;;;;;;;;;;;;-5.57;100.00;100423.46;1733967;81;21130;-69
2021/11/17 06:15:56;;;;;;;;;;;;;;;-5.52;100.00;100423.91;1684409;84;20107;-69
2021/11/17 06:18:28;;;;;;;;;;;;;;;-5.49;100.00;100419.71;1735415;81;20547;-69
2021/11/17 06:21:14;;;;;;;;;;;;;;;-5.40;100.00;100422.88;1735149;81;20478;-70
2021/11/17 06:23:47;;;;;;;;;;;;;;;-5.15;100.00;100420.79;1704506;83;20102;-69
2021/11/17 06:26:19;;;;;;;;;;;;;;;-4.99;100.00;100415.42;1701953;83;21113;-70
2021/11/17 06:28:51;;;;;;;;;;;;;;;-5.03;100.00;100414.50;1706511;83;20125;-68
2021/11/17 06:31:18;;;;;;;;;;;;;;;-4.97;100.00;100413.99;1708551;83;20178;-68
2021/11/17 06:33:45;;;;;;;;;;;;;;;-4.61;100.00;100415.66;1703442;84;20819;-69
2021/11/17 06:36:11;;;;;;;;;;;;;;;-4.31;100.00;100422.63;1706104;82;20267;-70
2021/11/17 06:38:38;;;;;;;;;;;;;;;-4.06;100.00;100416.51;1700162;83;21140;-70
2021/11/17 06:41:04;;;;;;;;;;;;;;;-4.05;100.00;100422.08;1676450;84;20498;-70
2021/11/17 06:43:41;;;;;;;;;;;;;;;-4.10;100.00;100423.31;1705619;83;20447;-69
2021/11/17 06:46:08;;;;;;;;;;;;;;;-4.12;100.00;100421.80;1705253;83;20145;-68
2021/11/17 06:48:36;;;;;;;;;;;;;;;-4.20;100.00;100419.05;1705271;83;20256;-71
2021/11/17 06:51:09;;;;;;;;;;;;;;;-4.22;100.00;100420.97;1700291;83;21126;-70
2021/11/17 06:53:40;;;;;;;;;;;;;;;-4.17;100.00;100418.77;1702558;83;20144;-68
2021/11/17 06:56:09;;;;;;;;;;;;;;;-4.14;100.00;100428.51;1712462;83;20173;-71
2021/11/17 06:58:35;;;;;;;;;;;;;;;-4.11;100.00;100419.54;1708382;83;20201;-71
2021/11/17 07:01:02;;;;;;;;;;;;;;;-3.94;100.00;100425.40;1705261;83;20209;-70
2021/11/17 07:03:32;;;;;;;;;;;;;;;-3.56;100.00;100422.38;1705271;83;21140;-70
2021/11/17 07:05:59;;;;;;;;;;;;;;;-3.44;100.00;100417.80;1704388;83;20631;-69
2021/11/17 07:08:28;;;;;;;;;;;;;;;-3.52;100.00;100417.20;1703082;83;20208;-70
2021/11/17 07:10:54;;;;;;;;;;;;;;;-3.48;100.00;100416.42;1683379;83;20138;-71
2021/11/17 07:13:23;;;;;;;;;;;;;;;-3.26;100.00;100422.67;1707167;83;20181;-70
2021/11/17 07:15:53;;;;;;;;;;;;;;;-2.86;100.00;100419.41;1704566;83;22278;-71
2021/11/17 07:18:19;;;;;;;;;;;;;;;-2.76;100.00;100419.36;1703866;83;20213;-73
2021/11/17 07:20:48;;;;;;;;;;;;;;;-3.04;100.00;100410.98;1705447;83;20518;-71
2021/11/17 07:23:27;;;;;;;;;;;;;;;-3.27;100.00;100419.69;1704204;83;20197;-71
2021/11/17 07:25:54;;;;;;;;;;;;;;;-3.28;100.00;100422.47;1707772;83;20162;-69
2021/11/17 07:28:21;;;;;;;;;;;;;;;-3.33;100.00;100425.52;1701785;83;21856;-69
2021/11/17 07:30:48;;;;;;;;;;;;;;;-3.35;100.00;100424.01;1697994;83;20160;-68
2021/11/17 07:33:15;;;;;;;;;;;;;;;-3.34;100.00;100421.22;1701741;83;20219;-69
2021/11/17 07:35:46;;;;;;;;;;;;;;;-3.37;100.00;100413.64;1705424;83;20877;-70
2021/11/17 07:38:16;;;;;;;;;;;;;;;-3.43;100.00;100416.81;1702017;83;20466;-71
2021/11/17 07:40:44;;;;;;;;;;;;;;;-3.49;100.00;100418.71;1698048;84;21860;-70
2021/11/17 07:43:10;;;;;;;;;;;;;;;-3.52;100.00;100411.95;1703999;83;20177;-71
2021/11/17 07:45:38;;;;;;;;;;;;;;;-3.48;100.00;100413.80;1710675;83;20124;-70
2021/11/17 07:48:05;;;;;;;;;;;;;;;-3.40;100.00;100413.94;1711592;83;20255;-70
2021/11/17 07:50:32;;;;;;;;;;;;;;;-3.39;100.00;100415.58;1717627;83;20149;-70
2021/11/17 07:53:00;;;;;;;;;;;;;;;-3.33;100.00;100410.23;1735482;82;22017;-71
2021/11/17 07:55:26;;;;;;;;;;;;;;;-3.28;100.00;100406.23;1720096;82;20465;-70
2021/11/17 07:57:58;;;;;;;;;;;;;;;-3.22;100.00;100404.00;1712738;83;20184;-72
2021/11/17 08:00:26;;;;;;;;;;;;;;;-3.08;100.00;100405.67;1684570;83;20283;-70
2021/11/17 08:02:52;;;;;;;;;;;;;;;-2.91;100.00;100401.45;1711243;83;20157;-70
2021/11/17 08:05:20;;;;;;;;;;;;;;;-2.66;100.00;100404.36;1713069;83;21124;-71
2021/11/17 08:07:47;;;;;;;;;;;;;;;-2.63;100.00;100411.45;1709912;83;20177;-71
2021/11/17 08:10:25;;;;;;;;;;;;;;;-2.60;100.00;100405.08;1706710;83;20214;-69
2021/11/17 08:12:53;;;;;;;;;;;;;;;-2.50;100.00;100404.55;1705865;82;20208;-72
2021/11/17 08:15:20;;;;;;;;;;;;;;;-2.41;100.00;100412.02;1691586;85;20436;-71
2021/11/17 08:17:48;;;;;;;;;;;;;;;-2.34;100.00;100406.51;1716138;83;21167;-71
2021/11/17 08:20:18;;;;;;;;;;;;;;;-2.26;100.00;100410.52;1717438;83;20180;-70
2021/11/17 08:22:48;;;;;;;;;;;;;;;-2.14;100.00;100408.50;1712141;83;20112;-72
2021/11/17 08:25:16;;;;;;;;;;;;;;;-2.06;100.00;100411.69;1712396;83;20841;-70
2021/11/17 08:27:43;;;;;;;;;;;;;;;-1.96;100.00;100415.06;1705561;83;20180;-70
2021/11/17 08:30:14;;;;;;;;;;;;;;;-1.84;100.00;100413.85;1694741;83;20204;-70
2021/11/17 08:32:41;;;;;;;;;;;;;;;-1.65;100.00;100414.17;1690162;83;20160;-71
2021/11/17 08:35:09;;;;;;;;;;;;;;;-1.40;100.00;100420.92;1703576;83;20464;-70
2021/11/17 08:37:39;;;;;;;;;;;;;;;-0.96;100.00;100411.62;1717883;83;20162;-70
2021/11/17 08:40:14;;;;;;;;;;;;;;;-0.47;100.00;100414.44;1711308;83;20113;-73
2021/11/17 08:42:41;;;;;;;;;;;;;;;-0.03;100.00;100425.56;1712339;83;21176;-71
2021/11/17 08:45:10;;;;;;;;;;;;;;;0.29;100.00;100423.11;1712397;83;20181;-70
2021/11/17 08:47:39;;;;;;;;;;;;;;;0.61;100.00;100419.61;1712374;83;20185;-71
2021/11/17 08:50:06;;;;;;;;;;;;;;;0.60;100.00;100413.51;1706217;83;20101;-72
2021/11/17 08:52:33;;;;;;;;;;;;;;;0.92;100.00;100414.42;1712412;83;20200;-71
2021/11/17 08:54:59;;;;;;;;;;;;;;;1.12;100.00;100410.89;1712516;83;21158;-72
2021/11/17 08:57:26;;;;;;;;;;;;;;;1.48;100.00;100406.44;1712322;83;20593;-72
2021/11/17 08:59:53;;;;;;;;;;;;;;;1.68;100.00;100405.50;1711722;83;20189;-70
2021/11/17 09:02:20;;;;;;;;;;;;;;;1.88;100.00;100406.67;1702072;83;20209;-68
2021/11/17 09:04:48;;;;;;;;;;;;;;;2.06;100.00;100405.59;1705051;83;20175;-67
2021/11/17 09:07:14;;;;;;;;;;;;;;;2.22;100.00;100400.13;1696975;84;21157;-67
2021/11/17 09:09:42;;;;;;;;;;;;;;;2.16;100.00;100390.27;1712068;83;20101;-69
2021/11/17 09:12:10;;;;;;;;;;;;;;;2.00;100.00;100397.01;1709633;83;20166;-69
2021/11/17 09:14:38;;;;;;;;;;;;;;;1.93;100.00;100391.59;1695137;84;20148;-71
2021/11/17 09:17:05;;;;;;;;;;;;;;;2.23;100.00;100385.06;1699611;83;20196;-70
2021/11/17 09:19:34;;;;;;;;;;;;;;;2.33;100.00;100389.63;1711956;83;21153;-72
2021/11/17 09:22:14;;;;;;;;;;;;;;;2.65;100.00;100385.02;1712374;83;20132;-70
2021/11/17 09:24:41;;;;;;;;;;;;;;;2.86;98.70;100377.66;1721476;83;20128;-69
2021/11/17 09:27:07;;;;;;;;;;;;;;;3.06;97.03;100384.03;1700161;83;20099;-69
2021/11/17 09:29:34;;;;;;;;;;;;;;;3.45;96.34;100385.53;1668508;84;20135;-69
2021/11/17 09:32:01;;;;;;;;;;;;;;;3.78;93.25;100379.78;1699494;83;21775;-69
2021/11/17 09:34:46;;;;;;;;;;;;;;;3.82;89.76;100377.05;1697907;83;20475;-71
2021/11/17 09:37:16;;;;;;;;;;;;;;;3.40;90.46;100377.31;1704342;83;20119;-70
2021/11/17 09:39:46;;;;;;;;;;;;;;;3.28;90.89;100366.35;1673996;85;20588;-70
2021/11/17 09:42:13;;;;;;;;;;;;;;;3.02;90.92;100359.42;1673901;85;20188;-69
2021/11/17 09:44:44;;;;;;;;;;;;;;;2.77;93.23;100356.55;1677485;83;21145;-70
2021/11/17 09:47:17;;;;;;;;;;;;;;;2.39;95.37;100355.78;1704694;83;20201;-67
2021/11/17 09:49:59;;;;;;;;;;;;;;;2.36;96.39;100349.02;1663263;83;20197;-69
2021/11/17 09:52:33;;;;;;;;;;;;;;;2.09;98.24;100352.25;1689888;84;20079;-70
2021/11/17 09:55:22;;;;;;;;;;;;;;;1.82;100.00;100345.69;1708561;83;20177;-69
2021/11/17 09:57:52;;;;;;;;;;;;;;;1.70;100.00;100344.77;1706305;84;21143;-70
2021/11/17 10:00:29;;;;;;;;;;;;;;;1.66;100.00;100335.52;1697536;84;20148;-70
2021/11/17 10:02:59;;;;;;;;;;;;;;;1.75;100.00;100332.33;1701475;83;20111;-69
2021/11/17 10:06:10;;;;;;;;;;;;;;;1.96;100.00;100330.36;1705347;84;20139;-69
2021/11/17 10:13:40;;;;;;;;;;;;;;;2.38;99.73;100317.53;1695134;83;20114;-69
2021/11/17 10:16:17;;;;;;;;;;;;;;;2.38;98.39;100314.87;1663783;84;20151;-71
2021/11/17 10:18:47;;;;;;;;;;;;;;;2.70;98.27;100320.35;1689331;84;20223;-71
2021/11/17 10:25:35;;;;;;;;;;;;;;;3.02;94.68;100315.66;1687798;84;20171;-70
2021/11/17 10:28:07;;;;;;;;;;;;;;;3.25;92.47;100309.69;1704493;83;20419;-71
2021/11/17 10:31:04;;;;;;;;;;;;;;;3.76;90.77;100317.55;1710369;83;20403;-71
2021/11/17 10:34:32;;;;;;;;;;;;;;;3.97;88.27;100316.73;1713435;83;20113;-70
2021/11/17 10:37:29;;;;;;;;;;;;;;;3.89;87.25;100311.53;1697878;83;20151;-70
2021/11/17 10:40:22;;;;;;;;;;;;;;;3.69;87.08;100303.91;1693897;83;21111;-70
2021/11/17 10:43:03;;;;;;;;;;;;;;;3.62;87.52;100307.30;1684969;84;20397;-69
2021/11/17 10:45:45;;;;;;;;;;;;;;;3.81;86.22;100300.54;1689122;83;20120;-70
2021/11/17 10:48:31;;;;;;;;;;;;;;;3.93;85.62;100288.89;1700163;83;20174;-69
2021/11/17 10:51:09;;;;;;;;;;;;;;;3.91;85.37;100281.63;1708535;82;20105;-68
2021/11/17 10:53:37;;;;;;;;;;;;;;;3.91;83.89;100285.61;1705407;83;21139;-70
2021/11/17 10:56:09;;;;;;;;;;;;;;;3.89;83.63;100270.87;1696028;84;20511;-69
2021/11/17 10:58:38;;;;;;;;;;;;;;;3.84;84.48;100282.07;1700324;83;20709;-69
2021/11/17 11:01:13;;;;;;;;;;;;;;;4.13;83.00;100270.96;1699263;83;20138;-69
2021/11/17 11:03:37;;;;;;;;;;;;;;;4.27;82.36;100267.37;1713616;83;20208;-69
2021/11/17 11:06:10;;;;;;;;;;;;;;;4.31;81.34;100264.63;1676702;83;21139;-69
2021/11/17 11:08:59;;;;;;;;;;;;;;;4.45;80.99;100263.69;1699910;83;20082;-70
2021/11/17 11:11:26;;;;;;;;;;;;;;;4.48;80.47;100264.64;1650186;86;20189;-68
2021/11/17 11:14:02;;;;;;;;;;;;;;;4.57;80.45;100254.66;1657277;86;20204;-71
2021/11/17 11:16:38;;;;;;;;;;;;;;;4.44;80.67;100255.41;1647146;86;20172;-68
2021/11/17 11:19:14;;;;;;;;;;;;;;;4.39;80.52;100250.38;1651132;86;21183;-69
2021/11/17 11:21:53;;;;;;;;;;;;;;;4.03;81.34;100249.53;1660082;86;20158;-70
2021/11/17 11:24:34;;;;;;;;;;;;;;;3.98;82.73;100253.28;1665377;86;20088;-69
2021/11/17 11:27:06;;;;;;;;;;;;;;;4.09;82.62;100246.59;1652248;86;20160;-69
2021/11/17 11:29:38;;;;;;;;;;;;;;;4.10;82.29;100242.12;1657383;86;20434;-70
2021/11/17 11:32:16;;;;;;;;;;;;;;;4.08;82.06;100236.48;1643759;86;21091;-68
2021/11/17 11:35:02;;;;;;;;;;;;;;;4.27;81.75;100238.14;1651328;86;20443;-70
2021/11/17 11:37:37;;;;;;;;;;;;;;;4.32;80.46;100234.39;1663448;86;20326;-69
2021/11/17 11:40:14;;;;;;;;;;;;;;;4.11;81.32;100236.60;1652888;84;20192;-69
2021/11/17 11:46:34;;;;;;;;;;;;;;;4.05;82.87;100229.42;1552250;91;22148;-70
2021/11/17 11:49:07;;;;;;;;;;;;;;;3.92;84.01;100228.83;1543509;91;20175;-71
2021/11/17 11:51:41;;;;;;;;;;;;;;;4.09;83.38;100217.38;1518897;93;20484;-70
2021/11/17 11:54:19;;;;;;;;;;;;;;;4.02;83.03;100220.01;1537183;92;20208;-70
2021/11/17 11:56:55;;;;;;;;;;;;;;;3.81;84.34;100223.53;1536645;91;20156;-69
2021/11/17 11:59:29;;;;;;;;;;;;;;;3.77;85.23;100221.45;1515860;93;21520;-69
2021/11/17 14:11:43;;;;;;;;;;;;;;;0.35;100.00;100163.66;1703478;83;20182;-75
2021/11/17 14:40:08;;;;;;;;;;;;;;;-0.55;100.00;100146.26;1634327;82;94175;-73
2021/11/17 14:42:36;;;;;;;;;;;;;;;-0.59;100.00;100141.48;1644746;85;21146;-72
2021/11/17 14:45:05;;;;;;;;;;;;;;;-0.63;100.00;100141.51;1663962;84;20139;-71
2021/11/17 14:47:33;;;;;;;;;;;;;;;-0.70;100.00;100143.47;1666276;85;20138;-70
2021/11/17 14:50:00;;;;;;;;;;;;;;;-0.77;100.00;100142.98;1645769;87;20450;-73
2021/11/17 14:52:28;;;;;;;;;;;;;;;-0.84;100.00;100140.18;1708091;83;20118;-71
2021/11/17 14:54:55;;;;;;;;;;;;;;;-0.95;100.00;100136.08;1694901;82;22113;-70
2021/11/17 14:57:22;;;;;;;;;;;;;;;-0.99;100.00;100138.70;1681575;84;20486;-75
2021/11/17 14:59:49;;;;;;;;;;;;;;;-1.05;100.00;100135.89;1680524;84;20156;-72
2021/11/17 15:02:15;;;;;;;;;;;;;;;-1.17;100.00;100127.51;1695106;83;20189;-73
2021/11/17 15:04:42;;;;;;;;;;;;;;;-1.30;100.00;100132.77;1671408;86;20200;-73
2021/11/17 15:07:10;;;;;;;;;;;;;;;-1.41;100.00;100127.80;1686471;83;21130;-72
2021/11/17 15:09:38;;;;;;;;;;;;;;;-1.46;100.00;100128.77;1706032;84;20134;-73
2021/11/17 15:12:15;;;;;;;;;;;;;;;-1.51;100.00;100129.75;1689117;83;20207;-72
2021/11/17 15:14:44;;;;;;;;;;;;;;;-1.45;100.00;100129.59;1689232;84;20164;-71
2021/11/17 15:17:11;;;;;;;;;;;;;;;-1.54;100.00;100128.27;1691655;82;20268;-72
2021/11/17 15:19:41;;;;;;;;;;;;;;;-1.60;100.00;100132.03;1692610;83;21135;-73
2021/11/17 15:22:10;;;;;;;;;;;;;;;-1.65;100.00;100133.82;1683654;84;20264;-70
2021/11/17 15:24:52;;;;;;;;;;;;;;;-1.68;100.00;100135.97;1828350;77;20875;-74
2021/11/17 15:27:29;;;;;;;;;;;;;;;-1.78;100.00;100130.83;1804633;78;20151;-74
2021/11/17 15:29:56;;;;;;;;;;;;;;;-1.82;100.00;100128.99;1791600;78;21097;-74
2021/11/17 15:32:25;;;;;;;;;;;;;;;-1.83;100.00;100125.23;1785328;78;20163;-73
2021/11/17 15:34:51;;;;;;;;;;;;;;;-1.90;100.00;100129.47;1788894;78;20103;-73
2021/11/17 15:37:21;;;;;;;;;;;;;;;-1.97;100.00;100130.09;1793173;78;20092;-73
2021/11/17 15:39:48;;;;;;;;;;;;;;;-1.97;100.00;100126.64;1802578;78;20117;-74
2021/11/17 15:42:15;;;;;;;;;;;;;;;-2.07;100.00;100127.27;1790152;78;21138;-73
2021/11/17 15:44:42;;;;;;;;;;;;;;;-2.05;100.00;100126.62;1818144;78;20074;-72
2021/11/17 15:47:09;;;;;;;;;;;;;;;-2.08;100.00;100125.13;1789752;78;20143;-70
2021/11/17 15:49:38;;;;;;;;;;;;;;;-2.18;100.00;100123.94;1805563;78;20126;-69
2021/11/17 15:52:06;;;;;;;;;;;;;;;-2.24;100.00;100121.09;1785988;78;20074;-72
2021/11/17 15:54:33;;;;;;;;;;;;;;;-2.29;100.00;100126.00;1810444;78;21135;-70
2021/11/17 15:56:59;;;;;;;;;;;;;;;-2.38;100.00;100129.06;1796344;78;20092;-71
2021/11/17 15:59:26;;;;;;;;;;;;;;;-2.50;100.00;100128.99;1790884;78;20474;-72
2021/11/17 16:01:53;;;;;;;;;;;;;;;-2.64;100.00;100127.77;1789519;80;20131;-73
2021/11/17 16:04:20;;;;;;;;;;;;;;;-2.77;100.00;100122.90;1810601;78;20432;-70
2021/11/17 16:06:57;;;;;;;;;;;;;;;-2.83;100.00;100119.59;1825328;78;21111;-69
2021/11/17 16:09:25;;;;;;;;;;;;;;;-2.84;100.00;100120.08;1825086;78;20125;-72
2021/11/17 16:11:54;;;;;;;;;;;;;;;-2.92;100.00;100119.18;1825029;78;20432;-72
2021/11/17 16:14:24;;;;;;;;;;;;;;;-2.94;100.00;100115.41;1794210;78;20424;-73
2021/11/17 16:16:51;;;;;;;;;;;;;;;-2.94;100.00;100117.19;1825094;78;20521;-71
2021/11/17 16:19:18;;;;;;;;;;;;;;;-2.95;100.00;100116.87;1824751;78;21088;-71
2021/11/17 16:21:46;;;;;;;;;;;;;;;-2.99;100.00;100118.14;1819824;78;20172;-71
2021/11/17 16:27:03;;;;;;;;;;;;;;;-3.07;100.00;100116.27;1810394;78;20135;-72
2021/11/17 16:29:31;;;;;;;;;;;;;;;-3.13;100.00;100108.52;1811237;78;20162;-70
2021/11/17 16:31:58;;;;;;;;;;;;;;;-3.21;100.00;100108.92;1790448;78;21164;-71
2021/11/17 16:34:25;;;;;;;;;;;;;;;-3.26;100.00;100109.38;1792039;78;20186;-69
2021/11/17 16:36:53;;;;;;;;;;;;;;;-3.21;100.00;100102.36;1793170;78;20139;-70
2021/11/17 16:39:20;;;;;;;;;;;;;;;-3.17;100.00;100105.03;1797695;78;20090;-73
2021/11/17 16:41:47;;;;;;;;;;;;;;;-3.14;100.00;100111.29;1793982;78;20444;-70
2021/11/17 16:44:14;;;;;;;;;;;;;;;-3.15;100.00;100113.09;1788751;80;21153;-69
2021/11/17 16:46:41;;;;;;;;;;;;;;;-3.15;100.00;100110.47;1788437;80;20139;-69
2021/11/17 16:49:14;;;;;;;;;;;;;;;-3.18;100.00;100108.65;1788642;80;20163;-70
2021/11/17 16:51:45;;;;;;;;;;;;;;;-3.27;100.00;100109.05;1789476;78;20121;-71
2021/11/17 16:54:13;;;;;;;;;;;;;;;-3.31;100.00;100108.52;1807341;78;20109;-70
2021/11/17 16:56:40;;;;;;;;;;;;;;;-3.31;100.00;100111.14;1807903;78;21139;-71
2021/11/17 16:59:09;;;;;;;;;;;;;;;-3.36;100.00;100104.70;1793815;78;20411;-70
2021/11/17 17:01:38;;;;;;;;;;;;;;;-3.36;100.00;100108.14;1751067;82;20185;-70
2021/11/17 17:04:04;;;;;;;;;;;;;;;-3.36;100.00;100105.52;1750773;82;20099;-71
2021/11/17 17:06:33;;;;;;;;;;;;;;;-3.31;100.00;100103.26;1751036;82;20162;-71
2021/11/17 17:09:00;;;;;;;;;;;;;;;-3.28;100.00;100100.36;1751889;80;21128;-71
2021/11/17 17:11:31;;;;;;;;;;;;;;;-3.28;100.00;100100.36;1781948;80;20152;-69
2021/11/17 17:13:57;;;;;;;;;;;;;;;-3.28;100.00;100099.54;1759322;80;20143;-71
2021/11/17 17:16:27;;;;;;;;;;;;;;;-3.27;100.00;100101.99;1756469;80;20150;-72
2021/11/17 17:18:54;;;;;;;;;;;;;;;-3.24;100.00;100100.38;1719347;83;20196;-70
2021/11/17 17:21:22;;;;;;;;;;;;;;;-3.26;100.00;100095.78;1736719;81;21175;-71
2021/11/17 17:23:48;;;;;;;;;;;;;;;-3.29;100.00;100093.94;1718464;82;20495;-72
2021/11/17 17:26:18;;;;;;;;;;;;;;;-3.33;100.00;100094.73;1712511;83;20173;-69
2021/11/17 17:28:45;;;;;;;;;;;;;;;-3.35;100.00;100093.23;1739639;81;20168;-70
2021/11/17 17:31:13;;;;;;;;;;;;;;;-3.36;100.00;100096.82;1750201;80;20124;-70
2021/11/17 17:33:41;;;;;;;;;;;;;;;-3.35;100.00;100092.75;1733405;81;21160;-71
2021/11/17 17:36:08;;;;;;;;;;;;;;;-3.32;100.00;100092.93;1732517;81;20163;-70
2021/11/17 17:38:37;;;;;;;;;;;;;;;-3.32;100.00;100096.38;1761208;81;20122;-72
2021/11/17 17:41:05;;;;;;;;;;;;;;;-3.27;100.00;100089.36;1731114;83;20129;-72
2021/11/17 17:43:32;;;;;;;;;;;;;;;-3.27;100.00;100082.30;1731026;82;20200;-69
2021/11/17 17:46:00;;;;;;;;;;;;;;;-3.16;100.00;100081.73;1730883;81;20136;-69
2021/11/17 17:48:27;;;;;;;;;;;;;;;-3.09;100.00;100081.45;1754843;81;20500;-70
2021/11/17 17:50:56;;;;;;;;;;;;;;;-3.08;100.00;100081.31;1761397;81;20094;-71
2021/11/17 17:53:25;;;;;;;;;;;;;;;-3.05;100.00;100080.19;1761078;81;20161;-72
2021/11/17 17:55:52;;;;;;;;;;;;;;;-3.01;100.00;100080.23;1757722;81;20476;-69
2021/11/17 17:58:19;;;;;;;;;;;;;;;-3.05;100.00;100076.24;1730853;82;21154;-72
2021/11/17 18:00:47;;;;;;;;;;;;;;;-3.06;100.00;100082.48;1730890;83;20164;-71
2021/11/17 18:03:18;;;;;;;;;;;;;;;-3.08;100.00;100082.62;1739504;81;20099;-72
2021/11/17 18:05:45;;;;;;;;;;;;;;;-3.04;100.00;100085.30;1730215;82;20445;-72
2021/11/17 18:08:15;;;;;;;;;;;;;;;-2.98;100.00;100083.85;1733891;81;20165;-70
2021/11/17 18:10:50;;;;;;;;;;;;;;;-2.96;100.00;100084.53;1731417;83;21973;-72
2021/11/17 18:13:19;;;;;;;;;;;;;;;-2.99;100.00;100080.05;1731184;83;20485;-70
2021/11/17 18:15:51;;;;;;;;;;;;;;;-3.03;100.00;100084.80;1730516;81;20431;-72
2021/11/17 18:18:19;;;;;;;;;;;;;;;-3.00;100.00;100087.61;1746378;81;20144;-71
2021/11/17 18:20:47;;;;;;;;;;;;;;;-2.97;100.00;100084.17;1753712;81;20122;-71